createdAt,value
2018-11-26T00:02:20.880Z,17.40
2018-11-26T00:05:25.004Z,16.83
2018-11-26T00:08:28.995Z,14.93
2018-11-26T00:11:34.424Z,15.60
2018-11-26T00:14:38.458Z,16.07
2018-11-26T00:17:42.400Z,14.70
2018-11-26T00:20:46.503Z,17.40
2018-11-26T00:23:50.447Z,15.23
2018-11-26T00:26:54.442Z,13.43
2018-11-26T00:29:58.428Z,15.27
2018-11-26T00:33:02.475Z,15.43
2018-11-26T00:36:07.127Z,15.67
2018-11-26T00:39:12.235Z,17.75
2018-11-26T00:42:16.223Z,15.50
2018-11-26T00:45:20.259Z,16.75
2018-11-26T00:48:24.252Z,14.70
2018-11-26T00:51:28.196Z,13.77
2018-11-26T00:54:32.179Z,16.50
2018-11-26T00:57:36.222Z,17.53
2018-11-26T01:00:40.318Z,15.40
2018-11-26T01:03:44.339Z,16.03
2018-11-26T01:06:48.645Z,15.20
2018-11-26T01:09:52.592Z,16.02
2018-11-26T01:12:56.566Z,14.73
2018-11-26T01:16:00.531Z,15.43
2018-11-26T01:19:04.496Z,15.40
2018-11-26T01:22:08.439Z,16.57
2018-11-26T01:25:12.527Z,15.07
2018-11-26T01:28:16.467Z,15.57
2018-11-26T01:31:20.352Z,13.87
2018-11-26T01:34:24.299Z,15.03
2018-11-26T01:37:28.272Z,16.33
2018-11-26T01:40:37.479Z,13.87
2018-11-26T01:43:41.420Z,15.37
2018-11-26T01:46:45.363Z,16.93
2018-11-26T01:49:49.347Z,15.43
2018-11-26T01:52:53.262Z,16.97
2018-11-26T01:55:57.171Z,15.70
2018-11-26T01:59:01.080Z,13.67
2018-11-26T02:02:05.099Z,15.73
2018-11-26T02:05:09.113Z,15.13
2018-11-26T02:08:13.028Z,15.17
2018-11-26T02:11:17.039Z,14.63
2018-11-26T02:14:20.956Z,12.70
2018-11-26T02:17:24.916Z,15.53
2018-11-26T02:20:29.767Z,14.40
2018-11-26T02:23:33.715Z,16.57
2018-11-26T02:26:37.621Z,14.23
2018-11-26T02:29:41.644Z,15.27
2018-11-26T02:32:45.547Z,14.13
2018-11-26T02:35:49.564Z,14.77
2018-11-26T02:38:53.656Z,14.43
2018-11-26T02:41:57.588Z,15.70
2018-11-26T02:45:01.510Z,13.53
2018-11-26T02:48:05.515Z,13.77
2018-11-26T02:51:09.423Z,15.07
2018-11-26T02:54:13.294Z,14.07
2018-11-26T02:57:17.248Z,12.93
2018-11-26T03:00:21.163Z,15.07
2018-11-26T03:03:25.176Z,14.57
2018-11-26T03:06:29.439Z,14.63
2018-11-26T03:09:33.412Z,16.33
2018-11-26T03:12:37.817Z,15.83
2018-11-26T03:15:41.744Z,13.83
2018-11-26T03:18:45.660Z,12.80
2018-11-26T03:21:49.675Z,13.10
2018-11-26T03:24:53.580Z,14.47
2018-11-26T03:27:57.496Z,13.70
2018-11-26T03:31:01.405Z,13.87
2018-11-26T03:34:05.454Z,14.00
2018-11-26T03:37:09.440Z,13.80
2018-11-26T03:40:13.967Z,13.70
2018-11-26T03:43:17.876Z,14.23
2018-11-26T03:46:21.795Z,15.23
2018-11-26T03:49:25.749Z,13.40
2018-11-26T03:52:29.719Z,13.23
2018-11-26T03:55:33.623Z,14.67
2018-11-26T03:58:37.522Z,13.70
2018-11-26T04:01:41.483Z,14.70
2018-11-26T04:04:45.460Z,12.30
2018-11-26T04:07:49.376Z,14.00
2018-11-26T04:10:53.403Z,14.50
2018-11-26T04:13:57.303Z,13.47
2018-11-26T04:17:04.839Z,13.93
2018-11-26T04:20:09.323Z,12.53
2018-11-26T04:23:13.235Z,13.20
2018-11-26T04:26:17.149Z,14.27
2018-11-26T04:29:21.056Z,14.13
2018-11-26T04:32:25.662Z,13.70
2018-11-26T04:35:29.702Z,13.70
2018-11-26T04:38:33.801Z,13.03
2018-11-26T04:41:38.140Z,13.97
2018-11-26T04:44:42.889Z,15.10
2018-11-26T04:47:46.888Z,14.23
2018-11-26T04:50:50.924Z,15.83
2018-11-26T04:53:55.716Z,15.03
2018-11-26T04:57:00.661Z,16.33
2018-11-26T05:00:05.972Z,15.00
2018-11-26T05:03:10.843Z,14.00
2018-11-26T05:06:16.205Z,14.47
2018-11-26T05:09:20.855Z,15.07
2018-11-26T05:12:25.160Z,15.23
2018-11-26T05:15:29.748Z,14.07
2018-11-26T05:18:34.500Z,14.60
2018-11-26T05:21:38.923Z,12.90
2018-11-26T05:24:43.344Z,14.13
2018-11-26T05:27:47.449Z,17.03
2018-11-26T05:30:51.670Z,14.17
2018-11-26T05:33:56.440Z,14.53
2018-11-26T05:37:00.328Z,13.70
2018-11-26T05:40:05.396Z,13.93
2018-11-26T05:43:10.320Z,13.70
2018-11-26T05:46:14.328Z,14.93
2018-11-26T05:49:18.437Z,13.73
2018-11-26T05:52:22.596Z,15.23
2018-11-26T05:55:26.755Z,13.37
2018-11-26T05:58:30.979Z,13.57
2018-11-26T06:01:34.997Z,14.20
2018-11-26T06:04:39.403Z,13.47
2018-11-26T06:07:43.475Z,14.03
2018-11-26T06:10:47.741Z,13.47
2018-11-26T06:13:51.668Z,13.33
2018-11-26T06:16:55.965Z,12.30
2018-11-26T06:20:00.876Z,13.10
2018-11-26T06:23:04.961Z,12.80
2018-11-26T06:26:09.521Z,13.93
2018-11-26T06:29:14.065Z,14.70
2018-11-26T06:32:19.267Z,13.50
2018-11-26T06:35:24.201Z,13.07
2018-11-26T06:38:28.997Z,11.80
2018-11-26T06:41:33.972Z,12.93
2018-11-26T06:44:38.558Z,11.70
2018-11-26T06:47:43.117Z,14.37
2018-11-26T06:50:47.276Z,12.23
2018-11-26T06:53:52.081Z,12.07
2018-11-26T06:56:57.081Z,12.50
2018-11-26T07:00:01.437Z,13.07
2018-11-26T07:03:05.628Z,12.07
2018-11-26T07:06:10.684Z,11.20
2018-11-26T07:09:16.309Z,11.10
2018-11-26T07:12:20.696Z,12.93
2018-11-26T07:15:25.105Z,11.97
2018-11-26T07:18:29.733Z,11.87
2018-11-26T07:21:34.104Z,13.87
2018-11-26T07:24:38.693Z,12.07
2018-11-26T07:27:44.311Z,13.03
2018-11-26T07:30:49.734Z,11.60
2018-11-26T07:33:53.996Z,12.20
2018-11-26T07:36:57.953Z,12.60
2018-11-26T07:40:02.225Z,11.77
2018-11-26T07:43:10.305Z,11.50
2018-11-26T07:46:14.112Z,20.83
2018-11-26T07:52:43.430Z,12.30
2018-11-26T07:55:47.235Z,12.60
2018-11-26T07:58:50.993Z,12.60
2018-11-26T08:01:54.944Z,11.93
2018-11-26T08:05:00.629Z,14.53
2018-11-26T08:08:04.667Z,13.23
2018-11-26T08:11:08.745Z,11.63
2018-11-26T08:14:13.815Z,10.67
2018-11-26T08:17:17.593Z,12.33
2018-11-26T08:20:22.869Z,10.67
2018-11-26T08:23:26.649Z,13.40
2018-11-26T08:26:30.501Z,12.13
2018-11-26T08:29:34.267Z,12.00
2018-11-26T08:32:39.141Z,12.17
2018-11-26T08:35:43.961Z,12.50
2018-11-26T08:38:51.945Z,10.82
2018-11-26T08:41:56.044Z,11.97
2018-11-26T08:45:04.989Z,13.70
2018-11-26T08:48:15.970Z,10.33
2018-11-26T08:51:20.458Z,11.33
2018-11-26T08:54:24.851Z,9.23
2018-11-26T08:57:30.939Z,12.17
2018-11-26T09:00:35.803Z,11.23
2018-11-26T09:03:45.133Z,10.23
2018-11-26T09:06:49.877Z,10.23
2018-11-26T09:09:55.585Z,13.73
2018-11-26T09:15:57.024Z,44.67
2018-11-26T09:19:01.079Z,62.55
2018-11-26T09:22:05.588Z,67.45
2018-11-26T09:25:12.491Z,52.00
2018-11-26T09:28:16.560Z,57.53
2018-11-26T09:31:20.580Z,52.27
2018-11-26T09:34:24.885Z,51.13
2018-11-26T09:37:28.992Z,45.60
2018-11-26T09:40:33.104Z,46.68
2018-11-26T09:43:37.384Z,45.38
2018-11-26T09:46:41.304Z,45.80
2018-11-26T09:49:45.412Z,43.80
2018-11-26T09:52:49.384Z,38.95
2018-11-26T09:55:53.777Z,35.28
2018-11-26T09:58:59.086Z,35.75
2018-11-26T10:02:03.860Z,35.43
2018-11-26T10:05:10.344Z,34.73
2018-11-26T10:08:14.567Z,32.53
2018-11-26T10:11:18.721Z,33.83
2018-11-26T10:14:22.801Z,32.15
2018-11-26T10:17:26.834Z,30.32
2018-11-26T10:20:30.734Z,29.70
2018-11-26T10:23:34.995Z,28.80
2018-11-26T10:26:39.102Z,30.72
2018-11-26T10:29:43.008Z,27.37
2018-11-26T10:32:47.608Z,26.80
2018-11-26T10:35:52.176Z,26.25
2018-11-26T10:38:56.277Z,24.27
2018-11-26T10:42:01.092Z,25.05
2018-11-26T10:45:04.687Z,24.82
2018-11-26T10:48:08.823Z,27.40
2018-11-26T10:51:13.092Z,23.70
2018-11-26T10:54:17.650Z,24.47
2018-11-26T10:57:22.012Z,28.12
2018-11-26T11:00:31.315Z,22.27
2018-11-26T11:03:35.463Z,23.35
2018-11-26T11:06:39.539Z,21.97
2018-11-26T11:09:43.587Z,21.02
2018-11-26T11:12:47.673Z,19.70
2018-11-26T11:15:51.708Z,28.47
2018-11-26T11:18:55.739Z,19.82
2018-11-26T11:22:00.327Z,18.77
2018-11-26T11:25:04.651Z,18.85
2018-11-26T11:28:08.657Z,16.10
2018-11-26T11:31:12.649Z,18.35
2018-11-26T11:34:16.593Z,19.07
2018-11-26T11:37:20.745Z,15.30
2018-11-26T11:40:26.716Z,17.07
2018-11-26T11:43:30.687Z,15.43
2018-11-26T11:46:35.725Z,14.53
2018-11-26T11:49:39.740Z,15.18
2018-11-26T11:52:43.901Z,15.43
2018-11-26T11:55:47.959Z,15.25
2018-11-26T11:58:51.982Z,13.72
2018-11-26T12:01:56.113Z,15.95
2018-11-26T12:05:00.313Z,16.80
2018-11-26T12:08:04.328Z,17.20
2018-11-26T12:11:09.760Z,18.23
2018-11-26T12:14:14.506Z,14.63
2018-11-26T12:17:19.228Z,17.80
2018-11-26T12:20:24.137Z,13.40
2018-11-26T12:23:29.024Z,12.95
2018-11-26T12:26:33.571Z,14.83
2018-11-26T12:29:37.548Z,12.30
2018-11-26T12:32:41.590Z,13.03
2018-11-26T12:35:45.577Z,10.90
2018-11-26T12:38:49.585Z,11.10
2018-11-26T12:41:53.827Z,12.33
2018-11-26T12:44:57.826Z,11.57
2018-11-26T12:48:02.370Z,10.72
2018-11-26T12:51:06.565Z,11.20
2018-11-26T12:54:10.681Z,10.95
2018-11-26T12:57:14.710Z,10.70
2018-11-26T13:00:27.582Z,10.55
2018-11-26T13:03:31.544Z,10.48
2018-11-26T13:06:35.549Z,13.60
2018-11-26T13:09:39.689Z,13.43
2018-11-26T13:12:43.957Z,14.60
2018-11-26T13:15:47.900Z,11.33
2018-11-26T13:18:51.920Z,12.88
2018-11-26T13:21:56.030Z,10.93
2018-11-26T13:25:01.081Z,13.15
2018-11-26T13:28:05.484Z,9.25
2018-11-26T13:31:09.397Z,11.65
2018-11-26T13:34:13.336Z,10.85
2018-11-26T13:37:17.249Z,9.60
2018-11-26T13:40:21.422Z,9.65
2018-11-26T13:43:25.415Z,9.43
2018-11-26T13:46:29.392Z,9.00
2018-11-26T13:49:33.365Z,8.85
2018-11-26T13:52:37.417Z,10.18
2018-11-26T13:55:41.338Z,9.00
2018-11-26T13:58:45.613Z,9.73
2018-11-26T14:01:49.566Z,7.72
2018-11-26T14:04:53.481Z,10.38
2018-11-26T14:07:57.861Z,9.28
2018-11-26T14:11:01.818Z,8.55
2018-11-26T14:14:06.666Z,8.05
2018-11-26T14:17:10.693Z,8.03
2018-11-26T14:20:15.754Z,11.97
2018-11-26T14:23:19.714Z,9.98
2018-11-26T14:26:23.735Z,9.85
2018-11-26T14:29:27.641Z,10.63
2018-11-26T14:32:31.656Z,9.18
2018-11-26T14:35:35.576Z,8.35
2018-11-26T14:38:39.692Z,11.80
2018-11-26T14:41:43.697Z,7.58
2018-11-26T14:44:47.622Z,13.72
2018-11-26T14:47:51.625Z,7.55
2018-11-26T14:50:55.550Z,8.93
2018-11-26T14:53:59.561Z,7.12
2018-11-26T14:57:03.465Z,7.83
2018-11-26T15:00:10.721Z,6.78
2018-11-26T15:03:14.669Z,6.87
2018-11-26T15:06:18.610Z,6.78
2018-11-26T15:09:22.613Z,9.10
2018-11-26T15:12:26.504Z,7.53
2018-11-26T15:15:30.423Z,6.50
2018-11-26T15:18:34.537Z,8.18
2018-11-26T15:21:38.453Z,6.40
2018-11-26T15:24:42.465Z,7.80
2018-11-26T15:27:46.581Z,7.87
2018-11-26T15:30:50.593Z,9.23
2018-11-26T15:33:55.162Z,10.90
2018-11-26T15:36:59.971Z,8.63
2018-11-26T15:40:04.121Z,8.65
2018-11-26T15:43:08.591Z,8.93
2018-11-26T15:46:12.621Z,10.05
2018-11-26T15:49:17.245Z,12.50
2018-11-26T15:52:21.453Z,7.40
2018-11-26T15:55:25.486Z,8.53
2018-11-26T15:58:29.500Z,8.65
2018-11-26T16:01:33.398Z,9.40
2018-11-26T16:04:37.409Z,9.03
2018-11-26T16:07:41.857Z,7.78
2018-11-26T16:10:45.849Z,7.80
2018-11-26T16:13:49.913Z,7.80
2018-11-26T16:16:54.198Z,9.65
2018-11-26T16:19:58.593Z,6.62
2018-11-26T16:23:02.601Z,6.97
2018-11-26T16:26:06.842Z,6.12
2018-11-26T16:29:10.879Z,9.20
2018-11-26T16:32:14.882Z,7.03
2018-11-26T16:35:24.240Z,6.90
2018-11-26T16:38:28.225Z,6.72
2018-11-26T16:41:32.385Z,7.50
2018-11-26T16:44:36.476Z,8.73
2018-11-26T16:47:40.588Z,9.55
2018-11-26T16:50:44.708Z,10.95
2018-11-26T16:53:48.755Z,10.63
2018-11-26T16:56:52.928Z,8.88
2018-11-26T16:59:56.957Z,7.28
2018-11-26T17:03:01.952Z,6.90
2018-11-26T17:06:06.501Z,7.85
2018-11-26T17:09:11.044Z,7.10
2018-11-26T17:12:15.051Z,7.40
2018-11-26T17:15:19.137Z,8.05
2018-11-26T17:18:23.069Z,8.48
2018-11-26T17:21:27.620Z,6.22
2018-11-26T17:24:31.616Z,6.78
2018-11-26T17:27:35.629Z,5.58
2018-11-26T17:30:40.333Z,6.05
2018-11-26T17:33:44.415Z,6.53
2018-11-26T17:36:48.396Z,9.18
2018-11-26T17:39:52.652Z,6.25
2018-11-26T17:42:56.641Z,6.62
2018-11-26T17:46:00.622Z,6.25
2018-11-26T17:49:04.580Z,7.12
2018-11-26T17:52:08.609Z,8.28
2018-11-26T17:55:12.892Z,6.65
2018-11-26T17:58:17.220Z,6.70
2018-11-26T18:01:26.849Z,6.47
2018-11-26T18:04:30.989Z,5.53
2018-11-26T18:07:34.990Z,8.45
2018-11-26T18:10:38.999Z,5.78
2018-11-26T18:13:43.149Z,6.15
2018-11-26T18:16:47.025Z,6.90
2018-11-26T18:19:51.070Z,5.85
2018-11-26T18:22:55.567Z,6.12
2018-11-26T18:25:59.577Z,6.08
2018-11-26T18:29:03.493Z,5.28
2018-11-26T18:32:07.613Z,5.28
2018-11-26T18:35:11.614Z,5.92
2018-11-26T18:38:15.647Z,7.42
2018-11-26T18:41:20.105Z,5.90
2018-11-26T18:44:24.077Z,5.85
2018-11-26T18:47:28.121Z,5.65
2018-11-26T18:50:32.180Z,6.55
2018-11-26T18:53:36.237Z,6.08
2018-11-26T18:56:40.849Z,5.80
2018-11-26T18:59:44.936Z,6.87
2018-11-26T19:02:48.773Z,5.80
2018-11-26T19:05:54.644Z,6.53
2018-11-26T19:08:59.013Z,5.17
2018-11-26T19:12:04.153Z,5.62
2018-11-26T19:15:11.183Z,7.10
2018-11-26T19:18:23.628Z,6.30
2018-11-26T19:21:27.561Z,6.83
2018-11-26T19:24:31.572Z,6.08
2018-11-26T19:27:35.645Z,8.63
2018-11-26T19:30:39.608Z,5.50
2018-11-26T19:33:43.687Z,5.47
2018-11-26T19:36:47.734Z,5.58
2018-11-26T19:39:51.704Z,17.73
2018-11-26T19:42:55.656Z,6.65
2018-11-26T19:45:59.640Z,9.28
2018-11-26T19:49:03.665Z,7.87
2018-11-26T19:52:07.664Z,7.62
2018-11-26T19:55:15.799Z,5.92
2018-11-26T19:58:19.901Z,6.83
2018-11-26T20:01:24.893Z,10.03
2018-11-26T20:04:38.249Z,8.85
2018-11-26T20:07:42.404Z,7.65
2018-11-26T20:10:46.397Z,6.50
2018-11-26T20:13:50.425Z,6.90
2018-11-26T20:16:54.389Z,11.22
2018-11-26T20:19:58.437Z,9.68
2018-11-26T20:23:02.520Z,7.00
2018-11-26T20:26:07.435Z,7.60
2018-11-26T20:29:11.501Z,9.25
2018-11-26T20:32:15.621Z,7.90
2018-11-26T20:35:19.767Z,8.78
2018-11-26T20:38:23.942Z,9.15
2018-11-26T20:41:29.535Z,7.15
2018-11-26T20:44:36.069Z,8.70
2018-11-26T20:47:41.729Z,6.87
2018-11-26T20:50:49.952Z,10.50
2018-11-26T20:53:55.756Z,8.80
2018-11-26T20:57:00.496Z,6.95
2018-11-26T21:00:07.176Z,7.58
2018-11-26T21:03:12.656Z,7.30
2018-11-26T21:06:17.323Z,12.30
2018-11-26T21:09:22.663Z,11.55
2018-11-26T21:12:27.878Z,14.58
2018-11-26T21:15:32.998Z,14.13
2018-11-26T21:18:37.749Z,12.60
2018-11-26T21:21:43.013Z,13.32
2018-11-26T21:24:48.188Z,11.00
2018-11-26T21:27:53.210Z,11.08
2018-11-26T21:30:58.451Z,12.28
2018-11-26T21:34:03.935Z,12.28
2018-11-26T21:37:09.425Z,10.58
2018-11-26T21:40:20.339Z,7.95
2018-11-26T21:43:21.165Z,13.68
2018-11-26T21:46:26.030Z,15.95
2018-11-26T21:49:30.149Z,16.73
2018-11-26T21:52:34.208Z,11.90
2018-11-26T21:55:38.300Z,10.53
2018-11-26T21:58:42.773Z,9.13
2018-11-26T22:01:46.736Z,12.23
2018-11-26T22:04:51.073Z,11.63
2018-11-26T22:07:55.185Z,10.75
2018-11-26T22:11:01.051Z,10.32
2018-11-26T22:14:06.146Z,9.58
2018-11-26T22:17:11.326Z,12.55
2018-11-26T22:20:18.686Z,11.95
2018-11-26T22:23:23.648Z,11.18
2018-11-26T22:26:28.740Z,12.40
2018-11-26T22:29:33.516Z,28.98
2018-11-26T22:32:38.475Z,19.67
2018-11-26T22:35:43.865Z,15.65
2018-11-26T22:38:48.943Z,11.75
2018-11-26T22:41:54.351Z,17.20
2018-11-26T22:44:59.286Z,17.07
2018-11-26T22:48:10.077Z,11.35
2018-11-26T22:51:15.139Z,13.90
2018-11-26T22:54:19.673Z,14.87
2018-11-26T22:57:23.948Z,13.50
2018-11-26T23:00:37.668Z,11.88
2018-11-26T23:03:42.342Z,14.73
2018-11-26T23:06:46.352Z,13.43
2018-11-26T23:09:50.434Z,14.07
2018-11-26T23:12:54.572Z,17.80
2018-11-26T23:15:58.725Z,10.85
2018-11-26T23:19:02.601Z,11.25
2018-11-26T23:22:07.229Z,10.03
2018-11-26T23:25:13.197Z,11.05
2018-11-26T23:28:17.423Z,13.83
2018-11-26T23:31:21.536Z,10.65
2018-11-26T23:34:25.557Z,12.80
2018-11-26T23:37:30.037Z,13.20
2018-11-26T23:40:34.241Z,11.12
2018-11-26T23:43:38.143Z,12.28
2018-11-26T23:46:42.221Z,10.95
2018-11-26T23:49:46.757Z,9.53
2018-11-26T23:52:50.757Z,13.20
2018-11-26T23:55:56.226Z,9.98
2018-11-26T23:59:00.313Z,12.45
